Time;durP1;ratioP1;P1;durP2;ratioP2;P2;SDS_P1;SDS_P2;PMS_P1;PMS_P2;Temp;Humidity;BMP_temperature;BMP_pressure;BME280_temperature;BME280_humidity;BME280_pressure;Samples;Min_cycle;Max_cycle;Signal;HPM_P1;HPM_P2
2021/07/24 00:00:21;;;;;;;15.07;13.73;;;24.80;99.90;;;;;;5112653;27;20397;-71
2021/07/24 00:02:47;;;;;;;14.30;13.00;;;24.80;99.90;;;;;;5111186;28;20070;-72
2021/07/24 00:05:12;;;;;;;14.40;13.07;;;24.70;99.90;;;;;;5112801;28;20024;-71
2021/07/24 00:07:38;;;;;;;14.10;12.57;;;24.60;99.90;;;;;;5112323;28;20111;-70
2021/07/24 00:10:05;;;;;;;14.50;12.43;;;24.60;99.90;;;;;;5111159;28;20474;-71
2021/07/24 00:12:31;;;;;;;17.52;15.35;;;24.60;99.90;;;;;;5111868;27;20038;-71
2021/07/24 00:14:57;;;;;;;16.05;12.80;;;24.60;99.90;;;;;;5112229;28;20024;-71
2021/07/24 00:17:24;;;;;;;13.43;12.13;;;24.60;99.90;;;;;;5112347;28;20032;-71
2021/07/24 00:19:49;;;;;;;18.77;13.98;;;24.60;99.90;;;;;;5112031;27;20598;-69
2021/07/24 00:22:15;;;;;;;12.48;11.38;;;24.60;99.90;;;;;;5110663;28;20098;-70
2021/07/24 00:24:41;;;;;;;14.02;12.57;;;24.60;99.90;;;;;;5111306;28;20478;-71
2021/07/24 00:27:08;;;;;;;13.80;12.43;;;24.60;99.90;;;;;;5112153;28;20089;-69
2021/07/24 00:29:34;;;;;;;16.10;14.52;;;24.50;99.90;;;;;;5111992;27;20030;-71
2021/07/24 00:32:00;;;;;;;17.38;12.40;;;24.50;99.90;;;;;;5112018;28;20043;-71
2021/07/24 00:34:26;;;;;;;14.20;12.32;;;24.40;99.90;;;;;;5112304;28;20059;-71
2021/07/24 00:36:55;;;;;;;12.90;11.70;;;24.40;99.90;;;;;;5112120;28;20016;-70
2021/07/24 00:39:20;;;;;;;14.52;12.82;;;24.40;99.90;;;;;;5110253;28;20430;-70
2021/07/24 00:41:51;;;;;;;13.57;12.07;;;24.40;99.90;;;;;;5111355;28;20031;-71
2021/07/24 00:44:20;;;;;;;14.55;13.15;;;24.40;99.90;;;;;;5111882;28;20087;-71
2021/07/24 00:46:47;;;;;;;16.80;13.30;;;24.40;99.90;;;;;;5111894;27;20024;-70
2021/07/24 00:49:15;;;;;;;14.25;12.90;;;24.40;99.90;;;;;;5111704;28;20066;-70
2021/07/24 00:51:47;;;;;;;14.57;13.05;;;24.40;99.90;;;;;;5111865;28;20050;-71
2021/07/24 00:54:13;;;;;;;15.38;13.88;;;24.40;99.90;;;;;;5110920;28;20367;-71
2021/07/24 00:56:39;;;;;;;14.27;12.98;;;24.40;99.90;;;;;;5107360;28;21516;-71
2021/07/24 00:59:06;;;;;;;16.52;13.32;;;24.40;99.90;;;;;;5101760;28;20028;-71
2021/07/24 01:01:31;;;;;;;16.08;12.13;;;24.40;99.90;;;;;;5109774;28;20027;-70
2021/07/24 01:03:57;;;;;;;13.57;12.27;;;24.30;99.90;;;;;;5109479;28;20362;-71
2021/07/24 01:06:24;;;;;;;14.70;12.18;;;24.30;99.90;;;;;;5111377;28;20024;-70
2021/07/24 01:08:51;;;;;;;13.98;12.57;;;24.40;99.90;;;;;;5111147;28;20020;-70
2021/07/24 01:11:17;;;;;;;14.63;13.18;;;24.30;99.90;;;;;;5109877;28;20092;-71
2021/07/24 01:13:43;;;;;;;15.55;13.63;;;24.30;99.90;;;;;;5111239;28;20312;-70
2021/07/24 01:16:10;;;;;;;13.82;12.45;;;24.40;99.90;;;;;;5111404;28;20287;-70
2021/07/24 01:18:37;;;;;;;14.60;13.13;;;24.30;99.90;;;;;;5109594;28;20542;-70
2021/07/24 01:21:10;;;;;;;15.82;14.25;;;24.30;99.90;;;;;;5111021;28;20350;-71
2021/07/24 01:23:37;;;;;;;16.52;13.15;;;24.30;99.90;;;;;;5111225;28;20164;-72
2021/07/24 01:26:03;;;;;;;15.85;13.40;;;24.30;99.90;;;;;;5109808;28;20024;-70
2021/07/24 01:28:31;;;;;;;14.43;13.15;;;24.40;99.90;;;;;;5109884;28;20026;-71
2021/07/24 01:30:58;;;;;;;14.80;13.50;;;24.40;99.90;;;;;;5111176;28;20103;-71
2021/07/24 01:33:24;;;;;;;12.73;11.52;;;24.40;99.90;;;;;;5110701;28;20095;-71
2021/07/24 01:35:51;;;;;;;16.83;13.50;;;24.50;99.90;;;;;;5111167;28;20098;-71
2021/07/24 01:38:18;;;;;;;15.65;13.95;;;24.40;99.90;;;;;;5110898;28;20028;-70
2021/07/24 01:40:44;;;;;;;12.63;11.40;;;24.40;99.90;;;;;;5109625;28;20028;-71
2021/07/24 01:43:10;;;;;;;14.57;13.23;;;24.40;99.90;;;;;;5109874;28;20435;-71
2021/07/24 01:45:37;;;;;;;13.55;12.25;;;24.30;99.90;;;;;;5110894;28;20020;-71
2021/07/24 01:48:07;;;;;;;15.90;13.05;;;24.30;99.90;;;;;;5109804;28;20020;-71
2021/07/24 01:53:18;;;;;;;15.50;13.73;;;24.30;99.90;;;;;;5111933;28;20043;-70
2021/07/24 01:55:53;;;;;;;14.70;13.23;;;24.30;99.90;;;;;;5111557;28;20077;-71
2021/07/24 01:58:32;;;;;;;14.75;13.15;;;24.30;99.90;;;;;;5111370;28;20016;-72
2021/07/24 02:01:04;;;;;;;13.05;11.88;;;24.30;99.90;;;;;;5111311;28;20016;-71
2021/07/24 02:03:38;;;;;;;13.75;12.38;;;24.30;99.90;;;;;;5111503;28;20020;-71
2021/07/24 02:06:04;;;;;;;14.57;13.25;;;24.20;99.90;;;;;;5111264;28;20599;-72
2021/07/24 02:08:32;;;;;;;17.23;11.52;;;24.20;99.90;;;;;;5110866;28;20028;-71
2021/07/24 02:11:04;;;;;;;13.88;12.48;;;24.20;99.90;;;;;;5109869;28;20020;-70
2021/07/24 02:13:30;;;;;;;13.50;12.27;;;24.30;99.90;;;;;;5110303;28;20028;-71
2021/07/24 02:15:56;;;;;;;14.38;12.93;;;24.30;99.90;;;;;;5114975;28;20039;-71
2021/07/24 02:18:23;;;;;;;13.75;12.45;;;24.30;99.90;;;;;;5115208;28;20040;-71
2021/07/24 02:20:50;;;;;;;19.55;14.30;;;24.30;99.90;;;;;;5113609;28;20027;-68
2021/07/24 02:23:17;;;;;;;14.63;13.38;;;24.30;99.90;;;;;;5114265;28;20477;-70
2021/07/24 02:25:43;;;;;;;13.70;12.50;;;24.30;99.90;;;;;;5115843;28;20028;-71
2021/07/24 02:28:09;;;;;;;14.13;12.73;;;24.20;99.90;;;;;;5116107;28;20431;-70
2021/07/24 02:30:35;;;;;;;14.35;13.00;;;24.10;99.90;;;;;;5114900;28;20036;-71
2021/07/24 02:33:01;;;;;;;15.15;13.82;;;24.10;99.90;;;;;;5114722;28;20389;-71
2021/07/24 02:35:27;;;;;;;14.85;13.40;;;24.00;99.90;;;;;;5114188;28;20028;-71
2021/07/24 02:37:52;;;;;;;14.30;13.10;;;24.00;99.90;;;;;;5115330;28;20111;-71
2021/07/24 02:40:20;;;;;;;14.00;12.80;;;24.10;99.90;;;;;;5114135;28;20027;-71
2021/07/24 02:42:46;;;;;;;15.15;12.98;;;24.00;99.90;;;;;;5114846;28;20020;-72
2021/07/24 02:45:11;;;;;;;15.10;13.75;;;24.00;99.90;;;;;;5113764;28;20239;-71
2021/07/24 02:47:37;;;;;;;14.88;12.60;;;24.00;99.90;;;;;;5114330;28;20358;-71
2021/07/24 02:50:03;;;;;;;16.25;14.23;;;24.00;99.90;;;;;;5112950;28;20023;-71
2021/07/24 02:52:29;;;;;;;15.05;13.52;;;23.90;99.90;;;;;;5112974;28;20031;-72
2021/07/24 02:54:55;;;;;;;14.43;12.90;;;23.90;99.90;;;;;;5112962;28;20023;-69
2021/07/24 02:57:21;;;;;;;14.63;13.20;;;23.90;99.90;;;;;;5110707;28;20096;-71
2021/07/24 02:59:46;;;;;;;14.15;12.23;;;23.90;99.90;;;;;;5113145;27;20024;-70
2021/07/24 03:02:16;;;;;;;13.32;11.85;;;23.90;99.90;;;;;;5114101;28;20039;-71
2021/07/24 03:04:42;;;;;;;16.15;12.95;;;23.90;99.90;;;;;;5114269;28;20423;-71
2021/07/24 03:07:08;;;;;;;14.82;13.43;;;23.90;99.90;;;;;;5113781;28;20098;-71
2021/07/24 03:09:34;;;;;;;19.00;13.70;;;24.00;99.90;;;;;;5113471;28;20024;-71
2021/07/24 03:12:00;;;;;;;14.70;13.25;;;23.90;99.90;;;;;;5112072;28;20081;-71
2021/07/24 03:14:25;;;;;;;14.77;13.25;;;24.00;99.90;;;;;;5112408;28;20209;-70
2021/07/24 03:16:51;;;;;;;14.60;12.52;;;23.90;99.90;;;;;;5112265;28;20034;-70
2021/07/24 03:19:17;;;;;;;15.25;13.85;;;23.90;99.90;;;;;;5112802;28;20032;-71
2021/07/24 03:21:43;;;;;;;14.05;12.73;;;23.90;99.90;;;;;;5111961;28;20024;-70
2021/07/24 03:24:09;;;;;;;15.32;13.93;;;23.90;99.90;;;;;;5113587;28;20126;-70
2021/07/24 03:26:34;;;;;;;13.52;12.32;;;23.90;99.90;;;;;;5111024;28;20523;-70
2021/07/24 03:29:00;;;;;;;15.48;13.98;;;24.00;99.90;;;;;;5111703;28;20051;-70
2021/07/24 03:31:26;;;;;;;16.70;13.20;;;23.90;99.90;;;;;;5113212;28;20038;-71
2021/07/24 03:33:51;;;;;;;14.95;12.50;;;23.90;99.90;;;;;;5112123;28;20478;-70
2021/07/24 03:36:17;;;;;;;14.95;13.55;;;23.90;99.90;;;;;;5114481;28;20102;-72
2021/07/24 03:38:43;;;;;;;15.82;12.75;;;23.90;99.90;;;;;;5113368;28;20019;-72
2021/07/24 03:41:08;;;;;;;14.18;12.55;;;23.90;99.90;;;;;;5112904;28;20020;-72
2021/07/24 03:43:34;;;;;;;13.55;12.18;;;24.00;99.90;;;;;;5111855;28;20462;-72
2021/07/24 03:46:00;;;;;;;13.90;12.70;;;24.00;99.90;;;;;;5112989;28;20026;-70
2021/07/24 03:48:26;;;;;;;15.85;14.13;;;24.00;99.90;;;;;;5111401;28;20019;-71
2021/07/24 03:50:52;;;;;;;15.10;13.57;;;24.00;99.90;;;;;;5111920;28;20035;-71
2021/07/24 03:53:18;;;;;;;16.27;12.68;;;24.10;99.90;;;;;;5112426;28;20027;-71
2021/07/24 03:55:44;;;;;;;15.73;14.30;;;24.10;99.90;;;;;;5111714;28;20028;-71
2021/07/24 03:58:10;;;;;;;14.85;13.52;;;24.00;99.90;;;;;;5112739;28;20053;-70
2021/07/24 04:00:43;;;;;;;14.20;12.77;;;24.00;99.90;;;;;;5112023;28;20027;-72
2021/07/24 04:03:09;;;;;;;14.80;13.45;;;24.10;99.90;;;;;;5112952;28;20061;-70
2021/07/24 04:05:40;;;;;;;14.65;13.15;;;24.20;99.90;;;;;;5113134;28;20020;-71
2021/07/24 04:08:06;;;;;;;16.35;13.75;;;24.30;99.90;;;;;;5111876;28;20451;-71
2021/07/24 04:10:33;;;;;;;13.60;12.40;;;24.30;99.90;;;;;;5111896;28;20528;-69
2021/07/24 04:13:01;;;;;;;14.63;12.55;;;24.40;99.90;;;;;;5111490;28;20493;-72
2021/07/24 04:15:26;;;;;;;17.20;13.15;;;24.40;99.90;;;;;;5113612;28;20287;-73
2021/07/24 04:17:52;;;;;;;14.52;13.23;;;24.40;99.90;;;;;;5110994;28;20537;-72
2021/07/24 04:20:21;;;;;;;16.25;14.63;;;24.40;99.90;;;;;;5112830;28;20028;-71
2021/07/24 04:22:48;;;;;;;16.63;14.82;;;24.40;99.90;;;;;;5112184;28;20022;-69
2021/07/24 04:25:14;;;;;;;15.10;13.75;;;24.30;99.90;;;;;;5111354;28;20016;-71
2021/07/24 04:27:44;;;;;;;14.52;13.13;;;24.30;99.90;;;;;;5110862;28;20034;-71
2021/07/24 04:30:10;;;;;;;14.35;13.02;;;24.30;99.90;;;;;;5112141;28;20039;-71
2021/07/24 04:32:36;;;;;;;14.75;13.38;;;24.20;99.90;;;;;;5112318;28;20039;-70
2021/07/24 04:35:03;;;;;;;15.13;13.40;;;24.30;99.90;;;;;;5112033;28;20398;-69
2021/07/24 04:37:30;;;;;;;14.50;12.98;;;24.30;99.90;;;;;;5111769;28;20390;-71
2021/07/24 04:39:55;;;;;;;14.85;13.55;;;24.20;99.90;;;;;;5110560;28;20031;-70
2021/07/24 04:42:21;;;;;;;14.48;13.07;;;24.30;99.90;;;;;;5110657;28;20020;-70
2021/07/24 04:44:47;;;;;;;14.65;13.25;;;24.30;99.90;;;;;;5111991;28;20182;-70
2021/07/24 04:47:13;;;;;;;13.75;12.57;;;24.40;99.90;;;;;;5111435;28;20474;-70
2021/07/24 04:49:47;;;;;;;14.77;13.27;;;24.40;99.90;;;;;;5110969;28;20019;-73
2021/07/24 04:52:13;;;;;;;17.05;15.52;;;24.40;99.90;;;;;;5114506;28;20081;-71
2021/07/24 04:54:40;;;;;;;17.33;15.70;;;24.40;99.90;;;;;;5111513;28;20032;-71
2021/07/24 04:57:06;;;;;;;16.88;15.30;;;24.40;99.90;;;;;;5113258;28;20106;-71
2021/07/24 04:59:32;;;;;;;16.10;13.77;;;24.40;99.90;;;;;;5103808;28;20406;-69
2021/07/24 05:01:58;;;;;;;14.40;12.88;;;24.40;99.90;;;;;;5111201;28;20038;-69
2021/07/24 05:04:24;;;;;;;13.95;12.50;;;24.40;99.90;;;;;;5110659;28;20055;-69
2021/07/24 05:06:50;;;;;;;18.85;13.30;;;24.40;99.90;;;;;;5110386;28;20062;-70
2021/07/24 05:09:15;;;;;;;15.05;13.60;;;24.40;99.90;;;;;;5109590;28;20031;-68
2021/07/24 05:11:41;;;;;;;19.30;17.45;;;24.40;99.90;;;;;;5111063;28;20027;-69
2021/07/24 05:14:07;;;;;;;19.77;14.50;;;24.40;99.90;;;;;;5109749;28;20024;-68
2021/07/24 05:16:32;;;;;;;15.80;13.98;;;24.40;99.90;;;;;;5109929;28;20031;-68
2021/07/24 05:19:00;;;;;;;16.77;15.25;;;24.50;99.90;;;;;;5111047;28;20036;-70
2021/07/24 05:21:26;;;;;;;15.20;13.60;;;24.60;99.90;;;;;;5111110;28;20016;-69
2021/07/24 05:23:51;;;;;;;18.10;15.88;;;24.60;99.90;;;;;;5111119;28;20027;-69
2021/07/24 05:26:17;;;;;;;15.45;13.88;;;24.60;99.90;;;;;;5109681;28;20489;-69
2021/07/24 05:28:43;;;;;;;16.45;14.75;;;24.60;99.90;;;;;;5109613;28;20019;-69
2021/07/24 05:31:19;;;;;;;15.35;13.88;;;24.70;99.90;;;;;;5110976;28;20020;-68
2021/07/24 05:33:45;;;;;;;15.65;14.00;;;24.80;99.90;;;;;;5109530;28;20470;-69
2021/07/24 05:36:11;;;;;;;15.90;14.50;;;24.80;99.90;;;;;;5109819;28;20020;-69
2021/07/24 05:38:39;;;;;;;14.73;13.43;;;24.90;99.90;;;;;;5110878;28;20374;-69
2021/07/24 05:41:05;;;;;;;16.08;14.48;;;25.00;99.90;;;;;;5110660;28;20051;-71
2021/07/24 05:43:31;;;;;;;17.67;14.82;;;25.00;99.90;;;;;;5109563;28;20474;-70
2021/07/24 05:46:00;;;;;;;17.77;15.68;;;25.00;99.90;;;;;;5109521;28;20023;-69
2021/07/24 05:48:26;;;;;;;13.93;12.70;;;25.00;99.90;;;;;;5111345;28;20063;-70
2021/07/24 05:50:51;;;;;;;16.77;15.13;;;25.00;99.90;;;;;;5116761;28;20067;-69
2021/07/24 05:53:17;;;;;;;16.27;14.23;;;25.00;99.90;;;;;;5118130;28;20035;-68
2021/07/24 05:55:43;;;;;;;14.63;13.23;;;25.10;99.90;;;;;;5116501;28;20023;-68
2021/07/24 05:58:09;;;;;;;15.50;13.93;;;25.20;99.90;;;;;;5116538;28;20027;-70
2021/07/24 06:00:34;;;;;;;15.43;13.90;;;25.30;99.90;;;;;;5117672;28;20119;-69
2021/07/24 06:03:00;;;;;;;16.00;14.30;;;25.40;99.90;;;;;;5118592;28;20015;-69
2021/07/24 06:05:26;;;;;;;16.05;13.80;;;25.50;99.90;;;;;;5117706;28;20023;-68
2021/07/24 06:07:51;;;;;;;16.17;14.38;;;25.50;99.90;;;;;;5117221;28;20379;-68
2021/07/24 06:10:17;;;;;;;22.50;16.77;;;25.50;99.90;;;;;;5115872;28;20028;-70
2021/07/24 06:12:47;;;;;;;15.25;13.88;;;25.60;99.90;;;;;;5115871;28;20478;-70
2021/07/24 06:15:12;;;;;;;15.90;14.23;;;25.60;99.90;;;;;;5116135;28;20020;-69
2021/07/24 06:17:38;;;;;;;16.67;14.98;;;25.60;99.90;;;;;;5115812;28;20038;-70
2021/07/24 06:20:04;;;;;;;16.75;15.23;;;25.70;99.90;;;;;;5117806;28;20497;-73
2021/07/24 06:22:30;;;;;;;21.05;15.18;;;25.80;99.90;;;;;;5119847;28;20023;-70
2021/07/24 06:24:56;;;;;;;23.15;13.93;;;25.90;99.90;;;;;;5117308;28;20035;-69
2021/07/24 06:27:22;;;;;;;16.15;13.73;;;25.90;99.90;;;;;;5115804;28;20084;-69
2021/07/24 06:29:47;;;;;;;18.50;14.70;;;26.10;99.90;;;;;;5115717;28;20073;-70
2021/07/24 06:32:13;;;;;;;16.45;14.95;;;26.30;99.90;;;;;;5116100;28;20020;-69
2021/07/24 06:34:39;;;;;;;14.60;13.40;;;26.40;99.90;;;;;;5117324;28;20012;-68
2021/07/24 06:37:05;;;;;;;14.45;13.10;;;26.50;99.90;;;;;;5116159;28;20140;-70
2021/07/24 06:39:30;;;;;;;16.20;14.52;;;26.60;99.90;;;;;;5115628;28;20106;-69
2021/07/24 06:41:56;;;;;;;14.85;13.35;;;26.60;99.90;;;;;;5117100;28;20057;-71
2021/07/24 06:44:23;;;;;;;16.15;14.65;;;26.70;99.90;;;;;;5117275;28;20080;-70
2021/07/24 06:46:48;;;;;;;16.67;13.85;;;26.80;99.90;;;;;;5117539;28;20424;-71
2021/07/24 06:49:14;;;;;;;14.70;13.50;;;27.00;99.90;;;;;;5117390;28;20015;-70
2021/07/24 06:51:40;;;;;;;17.02;15.45;;;27.10;99.90;;;;;;5115851;28;20530;-69
2021/07/24 06:54:05;;;;;;;15.98;14.18;;;27.20;99.90;;;;;;5115858;28;20034;-70
2021/07/24 06:56:34;;;;;;;17.85;16.00;;;27.40;99.90;;;;;;5117112;28;20060;-71
2021/07/24 06:59:00;;;;;;;16.45;14.82;;;27.50;99.90;;;;;;5113935;28;20448;-69
2021/07/24 07:01:25;;;;;;;17.30;15.48;;;27.60;99.90;;;;;;5109383;28;20081;-69
2021/07/24 07:03:51;;;;;;;16.23;14.50;;;27.80;99.90;;;;;;5113746;28;20377;-69
2021/07/24 07:06:17;;;;;;;17.00;15.07;;;27.90;99.90;;;;;;5113038;28;20020;-69
2021/07/24 07:08:42;;;;;;;15.00;13.43;;;28.10;99.90;;;;;;5113360;28;20481;-68
2021/07/24 07:11:09;;;;;;;17.00;15.27;;;28.10;99.90;;;;;;5113201;28;20035;-67
2021/07/24 07:13:35;;;;;;;18.92;15.25;;;28.20;99.90;;;;;;5112401;28;20028;-68
2021/07/24 07:16:08;;;;;;;19.17;17.50;;;28.10;99.90;;;;;;5112164;28;20365;-69
2021/07/24 07:18:38;;;;;;;25.10;22.63;;;28.10;99.90;;;;;;5112054;28;20040;-69
2021/07/24 07:21:04;;;;;;;20.77;17.45;;;28.10;99.90;;;;;;5113649;28;20051;-69
2021/07/24 07:23:30;;;;;;;16.52;14.18;;;28.10;99.90;;;;;;5113555;28;20474;-69
2021/07/24 07:25:56;;;;;;;16.00;14.43;;;28.20;99.90;;;;;;5113594;28;20084;-69
2021/07/24 07:28:21;;;;;;;16.00;13.48;;;28.40;99.90;;;;;;5113479;28;20050;-69
2021/07/24 07:30:47;;;;;;;15.95;14.35;;;28.50;99.90;;;;;;5112392;28;20028;-69
2021/07/24 07:33:15;;;;;;;16.95;15.07;;;28.70;99.90;;;;;;5112332;28;20024;-69
2021/07/24 07:35:40;;;;;;;15.70;14.27;;;28.80;99.90;;;;;;5113460;28;20023;-68
2021/07/24 07:38:06;;;;;;;17.52;15.82;;;28.90;99.90;;;;;;5111879;28;20073;-68
2021/07/24 07:40:37;;;;;;;17.08;15.38;;;29.10;99.90;;;;;;5113169;28;20042;-69
2021/07/24 07:43:04;;;;;;;21.67;15.25;;;29.10;99.90;;;;;;5113008;28;20054;-69
2021/07/24 07:45:30;;;;;;;20.15;16.27;;;29.10;99.90;;;;;;5111703;28;20020;-68
2021/07/24 07:47:56;;;;;;;18.10;14.45;;;29.00;99.90;;;;;;5113062;28;20031;-68
2021/07/24 07:50:22;;;;;;;18.05;13.60;;;28.80;99.90;;;;;;5113033;28;20103;-70
2021/07/24 07:52:47;;;;;;;15.88;14.30;;;28.70;99.90;;;;;;5112906;28;20035;-70
2021/07/24 07:55:13;;;;;;;18.08;15.98;;;28.60;99.90;;;;;;5112932;28;20024;-70
2021/07/24 07:57:40;;;;;;;16.48;14.80;;;28.50;99.90;;;;;;5111351;28;20024;-69
2021/07/24 08:00:09;;;;;;;16.48;14.75;;;28.40;99.90;;;;;;5113167;28;20042;-71
2021/07/24 08:02:35;;;;;;;17.85;16.13;;;28.30;99.90;;;;;;5112659;28;20024;-70
2021/07/24 08:05:01;;;;;;;16.38;14.68;;;28.30;99.90;;;;;;5112581;28;20016;-70
2021/07/24 08:07:26;;;;;;;17.00;15.15;;;28.20;99.90;;;;;;5111066;28;20015;-72
2021/07/24 08:09:54;;;;;;;21.40;15.57;;;28.10;99.90;;;;;;5111179;28;20027;-69
2021/07/24 08:12:20;;;;;;;18.65;16.33;;;28.20;99.90;;;;;;5111666;28;20012;-70
2021/07/24 08:14:45;;;;;;;15.68;14.15;;;28.30;99.90;;;;;;5113000;28;20030;-72
2021/07/24 08:17:11;;;;;;;22.17;16.98;;;28.30;99.90;;;;;;5113717;28;20028;-71
2021/07/24 08:19:37;;;;;;;23.90;15.40;;;28.30;99.90;;;;;;5112873;28;20026;-70
2021/07/24 08:22:03;;;;;;;16.30;14.52;;;28.20;99.90;;;;;;5112486;28;20048;-70
2021/07/24 08:24:29;;;;;;;18.70;16.95;;;28.20;99.90;;;;;;5111106;28;20051;-69
2021/07/24 08:26:55;;;;;;;19.88;15.85;;;28.20;99.90;;;;;;5112371;28;20363;-69
2021/07/24 08:29:20;;;;;;;18.55;14.55;;;28.10;99.90;;;;;;5110611;28;20469;-69
2021/07/24 08:31:46;;;;;;;20.60;15.68;;;28.00;99.90;;;;;;5112007;28;20457;-70
2021/07/24 08:34:12;;;;;;;19.30;15.82;;;28.00;99.90;;;;;;5112898;28;20030;-69
2021/07/24 08:36:37;;;;;;;17.05;15.18;;;28.20;99.90;;;;;;5112341;28;20366;-69
2021/07/24 08:39:03;;;;;;;15.45;13.70;;;28.20;99.90;;;;;;5111901;28;20434;-69
2021/07/24 08:41:29;;;;;;;21.27;16.50;;;28.10;99.90;;;;;;5110638;28;20023;-69
2021/07/24 08:43:55;;;;;;;18.52;14.75;;;28.20;99.90;;;;;;5110520;28;20019;-71
2021/07/24 08:46:20;;;;;;;18.30;15.23;;;28.20;99.90;;;;;;5112058;28;20016;-70
2021/07/24 08:48:46;;;;;;;26.88;15.77;;;28.30;99.90;;;;;;5110687;28;20051;-70
2021/07/24 08:51:16;;;;;;;23.05;14.15;;;28.30;99.90;;;;;;5110447;28;20023;-70
2021/07/24 08:53:42;;;;;;;16.33;14.60;;;28.30;99.90;;;;;;5110534;28;20028;-71
2021/07/24 08:56:23;;;;;;;17.23;15.55;;;28.20;99.90;;;;;;5112103;28;20020;-70
2021/07/24 08:58:55;;;;;;;17.43;15.10;;;28.20;99.90;;;;;;5110226;28;20073;-70
2021/07/24 09:01:22;;;;;;;16.98;15.23;;;28.20;99.90;;;;;;5105097;28;20027;-69
2021/07/24 09:03:48;;;;;;;16.63;14.57;;;28.20;99.90;;;;;;5111779;28;20488;-70
2021/07/24 09:06:22;;;;;;;17.00;15.45;;;28.20;99.90;;;;;;5111880;28;20032;-70
2021/07/24 09:08:56;;;;;;;15.65;14.25;;;28.10;99.90;;;;;;5111530;28;20107;-69
2021/07/24 09:11:22;;;;;;;16.58;14.93;;;28.00;99.90;;;;;;5110000;28;20027;-70
2021/07/24 09:13:48;;;;;;;17.73;15.07;;;28.00;99.90;;;;;;5111827;28;20023;-70
2021/07/24 09:16:14;;;;;;;15.80;13.00;;;28.10;99.90;;;;;;5111388;28;20020;-69
2021/07/24 09:18:41;;;;;;;20.48;14.55;;;28.20;99.90;;;;;;5109845;28;20509;-69
2021/07/24 09:21:07;;;;;;;18.67;15.68;;;28.20;99.90;;;;;;5109844;28;20495;-70
2021/07/24 09:23:36;;;;;;;21.00;13.75;;;28.50;99.90;;;;;;5109118;28;20055;-69
2021/07/24 09:26:04;;;;;;;26.30;16.17;;;28.60;99.90;;;;;;5111414;28;20019;-70
2021/07/24 09:28:32;;;;;;;17.10;15.50;;;28.70;99.90;;;;;;5111641;28;20023;-72
2021/07/24 09:30:58;;;;;;;18.40;16.27;;;28.50;99.90;;;;;;5110339;28;20023;-69
2021/07/24 09:33:23;;;;;;;17.48;15.07;;;28.40;99.90;;;;;;5110531;28;20443;-71
2021/07/24 09:35:53;;;;;;;15.85;14.25;;;28.40;99.90;;;;;;5110687;28;20103;-70
2021/07/24 09:38:32;;;;;;;18.00;14.75;;;28.50;99.90;;;;;;5112431;28;20099;-69
2021/07/24 09:41:03;;;;;;;19.70;16.02;;;28.50;99.90;;;;;;5112360;28;20080;-69
2021/07/24 09:43:30;;;;;;;21.20;15.60;;;28.70;99.90;;;;;;5112207;28;20023;-71
2021/07/24 09:46:09;;;;;;;16.10;14.32;;;28.70;99.90;;;;;;5111339;28;20098;-70
2021/07/24 09:48:35;;;;;;;19.13;15.85;;;28.80;99.90;;;;;;5111176;28;20016;-70
2021/07/24 09:51:01;;;;;;;18.27;15.70;;;28.80;99.90;;;;;;5111173;28;20030;-70
2021/07/24 09:53:37;;;;;;;17.70;15.77;;;28.80;99.90;;;;;;5111253;28;20031;-71
2021/07/24 09:56:04;;;;;;;18.10;15.10;;;28.90;99.90;;;;;;5110948;28;20026;-70
2021/07/24 09:58:29;;;;;;;18.95;14.77;;;29.00;99.90;;;;;;5109590;28;20024;-69
2021/07/24 10:01:21;;;;;;;16.25;14.63;;;28.90;99.90;;;;;;5111160;28;20058;-72
2021/07/24 10:03:51;;;;;;;;;;;28.90;99.90;;;;;;5107694;28;20028;-73
2021/07/24 10:06:17;;;;;;;19.75;14.15;;;28.90;99.90;;;;;;5111290;28;20312;-70
2021/07/24 10:08:45;;;;;;;21.08;16.17;;;28.90;99.90;;;;;;5110943;28;20024;-70
2021/07/24 10:11:11;;;;;;;17.00;15.10;;;28.70;99.90;;;;;;5109511;28;20024;-69
2021/07/24 10:13:42;;;;;;;19.02;14.80;;;28.80;99.90;;;;;;5111080;28;20030;-71
2021/07/24 10:16:08;;;;;;;18.52;15.23;;;28.60;99.90;;;;;;5109981;28;20028;-71
2021/07/24 10:18:34;;;;;;;15.95;14.27;;;28.70;99.90;;;;;;5109774;28;20185;-71
2021/07/24 10:21:01;;;;;;;15.82;13.80;;;28.80;99.90;;;;;;5110913;28;20019;-70
2021/07/24 10:23:28;;;;;;;17.02;14.23;;;28.80;99.90;;;;;;5110977;28;20057;-70
2021/07/24 10:25:59;;;;;;;16.52;14.73;;;29.00;99.90;;;;;;5111073;28;20551;-69
2021/07/24 10:29:08;;;;;;;18.92;15.13;;;29.00;99.90;;;;;;5110344;28;20389;-68
2021/07/24 10:31:49;;;;;;;18.30;13.73;;;29.10;99.90;;;;;;5110600;28;20076;-69
2021/07/24 10:34:26;;;;;;;17.92;13.75;;;28.90;99.90;;;;;;5110821;28;20053;-69
2021/07/24 10:36:52;;;;;;;18.13;14.70;;;28.90;99.90;;;;;;5113342;28;20630;-71
2021/07/24 10:39:19;;;;;;;16.35;14.32;;;28.90;99.90;;;;;;5114403;28;20148;-70
2021/07/24 10:41:44;;;;;;;15.75;14.13;;;28.90;99.90;;;;;;5114535;28;20020;-69
2021/07/24 10:44:14;;;;;;;16.17;14.77;;;29.00;99.90;;;;;;5114974;28;20293;-70
2021/07/24 10:46:40;;;;;;;16.35;14.75;;;29.10;99.90;;;;;;5114635;28;20024;-70
2021/07/24 10:49:07;;;;;;;15.77;14.38;;;29.20;99.90;;;;;;5113352;28;20026;-70
2021/07/24 10:52:04;;;;;;;16.88;14.48;;;29.20;99.90;;;;;;5115149;27;20085;-70
2021/07/24 10:54:31;;;;;;;15.55;13.80;;;29.10;99.90;;;;;;5114387;28;20023;-70
2021/07/24 10:56:58;;;;;;;19.52;15.20;;;29.10;99.90;;;;;;5113133;28;20162;-71
2021/07/24 10:59:28;;;;;;;17.45;13.70;;;29.10;99.90;;;;;;5114143;28;20047;-72
2021/07/24 11:01:56;;;;;;;17.00;14.90;;;29.00;99.90;;;;;;5110934;28;20389;-69
2021/07/24 11:04:38;;;;;;;21.67;15.48;;;29.00;99.90;;;;;;5112567;28;20031;-70
2021/07/24 11:07:16;;;;;;;;;;;29.10;99.90;;;;;;5114764;28;20280;-70
2021/07/24 11:09:46;;;;;;;18.00;14.65;;;29.20;99.90;;;;;;5116451;28;19904;-72
2021/07/24 11:12:13;;;;;;;16.65;13.02;;;28.90;99.90;;;;;;5113013;28;20090;-68
2021/07/24 11:14:42;;;;;;;16.33;14.75;;;28.90;99.90;;;;;;5113995;28;20016;-69
2021/07/24 11:17:08;;;;;;;20.67;13.95;;;29.00;99.90;;;;;;5112439;28;20031;-71
2021/07/24 11:19:36;;;;;;;18.52;13.38;;;29.00;99.90;;;;;;5113678;28;20501;-68
2021/07/24 11:22:15;;;;;;;18.15;14.25;;;28.90;99.90;;;;;;5112240;28;20031;-70
2021/07/24 11:25:03;;;;;;;15.35;13.90;;;28.90;99.90;;;;;;5113597;28;20031;-71
2021/07/24 11:27:31;;;;;;;16.02;13.65;;;29.00;99.90;;;;;;5101012;28;20032;-74
2021/07/24 11:30:02;;;;;;;14.65;13.25;;;28.90;99.90;;;;;;5112539;28;20023;-70
2021/07/24 11:32:33;;;;;;;19.30;13.65;;;29.00;99.90;;;;;;5112188;28;20027;-70
2021/07/24 11:35:01;;;;;;;15.57;13.98;;;29.10;99.90;;;;;;5113612;28;20031;-70
2021/07/24 11:37:53;;;;;;;16.02;14.43;;;29.10;99.90;;;;;;5113495;28;20031;-70
2021/07/24 11:40:24;;;;;;;15.30;12.82;;;29.30;99.90;;;;;;5111307;28;20028;-71
2021/07/24 11:43:07;;;;;;;15.55;13.80;;;29.20;99.90;;;;;;5112187;28;20027;-70
2021/07/24 11:45:35;;;;;;;16.25;14.68;;;29.30;99.90;;;;;;5113561;28;20023;-72
2021/07/24 11:48:12;;;;;;;14.35;12.95;;;29.30;99.90;;;;;;5111247;28;20518;-68
2021/07/24 11:50:39;;;;;;;13.75;12.48;;;29.50;99.90;;;;;;5113362;28;20547;-71
2021/07/24 11:53:05;;;;;;;20.85;14.18;;;29.60;99.90;;;;;;5113174;28;20015;-71
2021/07/24 11:55:32;;;;;;;17.17;15.32;;;29.80;99.90;;;;;;5113191;28;20051;-71
2021/07/24 11:58:05;;;;;;;16.08;14.00;;;29.80;99.90;;;;;;5113182;28;20028;-68
2021/07/24 12:00:31;;;;;;;15.63;14.23;;;29.80;99.90;;;;;;5111528;28;20023;-68
2021/07/24 12:03:17;;;;;;;15.30;13.82;;;29.80;99.90;;;;;;5113018;28;20043;-71
2021/07/24 12:05:44;;;;;;;13.52;12.32;;;30.00;99.90;;;;;;5111569;28;20034;-71
2021/07/24 12:08:10;;;;;;;18.98;13.25;;;30.00;99.90;;;;;;5112793;28;20489;-70
2021/07/24 12:10:39;;;;;;;14.20;13.00;;;30.10;99.90;;;;;;5111483;28;20027;-71
2021/07/24 12:13:06;;;;;;;17.63;13.32;;;30.20;99.90;;;;;;5113171;28;20019;-70
2021/07/24 12:16:01;;;;;;;15.50;14.00;;;30.30;99.90;;;;;;5112848;28;20542;-70
2021/07/24 12:18:48;;;;;;;15.70;13.55;;;30.20;99.90;;;;;;5112775;28;20424;-69
2021/07/24 12:21:43;;;;;;;15.43;13.65;;;30.30;99.90;;;;;;5111278;28;20104;-70
2021/07/24 12:24:09;;;;;;;16.40;14.18;;;30.30;99.90;;;;;;5098131;28;20400;-71
2021/07/24 12:26:37;;;;;;;14.93;13.43;;;30.60;99.90;;;;;;5111317;28;20034;-69
2021/07/24 12:29:12;;;;;;;15.88;14.32;;;30.90;99.90;;;;;;5111215;28;20370;-70
2021/07/24 12:31:48;;;;;;;21.48;13.07;;;31.00;99.90;;;;;;5112394;28;20515;-69
2021/07/24 12:34:18;;;;;;;15.25;12.75;;;31.00;99.90;;;;;;5112890;28;20023;-69